METAR Data
IDs: Format: Raw Decoded Include TAF

Data at: 0714 UTC 01 Aug 2021

EDFM 010650Z VRB03KT CAVOK 18/12 Q1010